Flight Track Log - Related Links

Times and Time Zones

All times are in EDT time to prevent confusion due to time zone crossing. See the JUS196 flight status page for this flight to view local times or setup timezone preferences in your user account.

Time Position Orientation Groundspeed Altitude Reporting Facility
EDT Latitude Longitude Course Direction KTS MPH feet Rate Location/Type
Mon 12:01:33 PM 42.2292 -83.5408 223° Southwest 155 178 1,500  Level FAA TRACON SMA TRACON (SMA)
Mon 12:01:53 PM 42.2161 -83.5575 223° Southwest 188 216 2,300 1,950 Climbing FAA TRACON SMA TRACON (SMA)
Mon 12:02:13 PM 42.2019 -83.5703 214° Southwest 205 236 2,800 1,800 Climbing FAA TRACON SMA TRACON (SMA)
Mon 12:02:33 PM 42.1867 -83.5811 208° Southwest 198 228 3,500 2,400 Climbing FAA TRACON SMA TRACON (SMA)
Mon 12:02:53 PM 42.1667 -83.5956 208° Southwest 214 246 4,400 3,150 Climbing FAA TRACON SMA TRACON (SMA)
Mon 12:03:13 PM 42.1469 -83.6036 197° South 238 274 5,600 3,300 Climbing FAA TRACON SMA TRACON (SMA)
Mon 12:03:33 PM 42.1256 -83.6103 193° South 267 307 6,600 3,900 Climbing FAA TRACON SMA TRACON (SMA)
Mon 12:03:53 PM 42.0978 -83.6208 196° South 270 311 8,200 4,500 Climbing FAA TRACON SMA TRACON (SMA)
Mon 12:04:13 PM 42.0750 -83.6297 196° South 275 316 9,600 3,450 Climbing FAA TRACON SMA TRACON (SMA)
Mon 12:04:33 PM 42.0517 -83.6375 194° South 280 322 10,500 3,000 Climbing FAA TRACON SMA TRACON (SMA)
Mon 12:04:53 PM 42.0194 -83.6525 199° South 323 372 11,600 2,850 Climbing FAA TRACON SMA TRACON (SMA)
Mon 12:05:13 PM 41.9931 -83.6653 200° South 330 380 12,400 1,500 Climbing FAA TRACON SMA TRACON (SMA)
Mon 12:05:33 PM 41.9661 -83.6764 197° South 330 380 12,600 900 Climbing FAA TRACON SMA TRACON (SMA)
Mon 12:05:53 PM 41.9322 -83.6894 196° South 330 380 13,000 1,800 Climbing FAA TRACON SMA TRACON (SMA)
Mon 12:06:13 PM 41.9047 -83.6997 196° South 334 384 13,800 3,300 Climbing FAA TRACON SMA TRACON (SMA)
Mon 12:06:33 PM 41.8689 -83.7144 197° South 346 398 15,200 4,050 Climbing FAA TRACON SMA TRACON (SMA)
Mon 12:06:53 PM 41.8400 -83.7269 198° South 348 400 16,500 3,600 Climbing FAA TRACON SMA TRACON (SMA)
Mon 12:07:13 PM 41.8114 -83.7386 197° South 351 404 17,600 2,700 Climbing FAA TRACON SMA TRACON (SMA)
Mon 12:07:33 PM 41.7750 -83.7528 196° South 353 406 18,300 2,250 Climbing FAA TRACON SMA TRACON (SMA)
Mon 12:07:53 PM 41.7447 -83.7633 195° South 363 418 19,100 2,550 Climbing FAA TRACON SMA TRACON (SMA)
Mon 12:08:13 PM 41.7136 -83.7744 195° South 373 429 20,000 2,550 Climbing FAA TRACON SMA TRACON (SMA)
Mon 12:08:33 PM 41.6819 -83.7858 195° South 384 442 20,800 2,700 Climbing FAA TRACON SMA TRACON (SMA)
Mon 12:08:53 PM 41.6425 -83.8019 197° South 387 445 21,800 2,850 Climbing FAA TRACON SMA TRACON (SMA)
Mon 12:09:13 PM 41.6108 -83.8194 202° Southwest 391 450 22,700 2,550 Climbing FAA TRACON SMA TRACON (SMA)
Mon 12:09:33 PM 41.5806 -83.8403 207° Southwest 396 456 23,500 2,100 Climbing FAA TRACON SMA TRACON (SMA)
Mon 12:09:53 PM 41.5592 -83.8600 215° Southwest 403 464 24,100 837 Climbing FAA TRACON SMA TRACON (SMA)
Mon 12:10:16 PM 41.5592 -83.8600 180° South 403 464 24,100 3,088 Level FAA TRACON SMA TRACON (SMA)
Mon 12:11:01 PM 41.4428 -83.9767 217° Southwest 399 459 27,600 2,895 Climbing Cleveland Center
Mon 12:12:39 PM 41.2992 -84.1064 214° Southwest 411 473 31,000 2,100 Climbing Indianapolis Center
Mon 12:13:41 PM 41.1997 -84.1908 213° Southwest 418 481 33,200 1,463 Climbing Indianapolis Center
Mon 12:14:42 PM 41.0989 -84.2778 213° Southwest 418 481 34,000 361 Climbing Indianapolis Center
Mon 12:15:54 PM 41.0006 -84.4056 224° Southwest 417 480 34,000  Level Chicago Center
Mon 12:16:56 PM 40.9164 -84.5139 224° Southwest 420 483 34,000  Level Chicago Center
Mon 12:17:58 PM 40.8381 -84.6253 227° Southwest 417 480 34,000  Level Chicago Center
Mon 12:19:00 PM 40.7447 -84.7592 227° Southwest 414 476 34,000  Level Chicago Center
Mon 12:20:01 PM 40.6672 -84.8703 227° Southwest 412 474 34,000  Level Chicago Center
Mon 12:21:04 PM 40.5906 -84.9781 227° Southwest 408 470 34,000  Level Indianapolis Center
Mon 12:22:06 PM 40.5100 -85.0861 226° Southwest 410 472 34,000  Level Indianapolis Center
Mon 12:23:07 PM 40.4292 -85.1969 226° Southwest 411 473 34,000  Level Chicago Center
Mon 12:24:09 PM 40.3492 -85.3061 226° Southwest 414 476 34,000  Level Indianapolis Center
Mon 12:25:11 PM 40.2697 -85.4164 227° Southwest 415 478 34,000  Level Chicago Center
Mon 12:26:13 PM 40.1753 -85.5453 226° Southwest 411 473 34,000  Level Chicago Center
Mon 12:27:14 PM 40.0947 -85.6497 225° Southwest 412 474 34,000  Level Indianapolis Center
Mon 12:28:16 PM 40.0147 -85.7569 226° Southwest 410 472 34,000  Level Indianapolis Center
Mon 12:29:18 PM 39.9356 -85.8639 226° Southwest 408 470 34,000  Level Indianapolis Center
Mon 12:30:20 PM 39.8506 -85.9733 225° Southwest 410 472 34,000  Level Indianapolis Center
Mon 12:31:21 PM 39.7700 -86.0783 225° Southwest 410 472 34,000  Level Indianapolis Center
Mon 12:32:23 PM 39.6894 -86.1817 225° Southwest 408 470 34,000  Level Indianapolis Center
Mon 12:33:25 PM 39.6097 -86.2889 226° Southwest 409 471 34,000  Level Indianapolis Center
Mon 12:34:27 PM 39.5294 -86.3939 225° Southwest 409 471 34,000  Level Indianapolis Center
Mon 12:35:28 PM 39.4333 -86.5208 226° Southwest 412 474 34,000  Level Indianapolis Center
Mon 12:36:30 PM 39.3533 -86.6253 225° Southwest 410 472 34,000  Level Indianapolis Center
Mon 12:37:32 PM 39.2706 -86.7286 224° Southwest 411 473 34,000  Level Indianapolis Center
Mon 12:38:34 PM 39.1897 -86.8342 225° Southwest 413 475 34,000  Level Indianapolis Center
Mon 12:39:36 PM 39.1094 -86.9392 225° Southwest 412 474 34,000  Level Indianapolis Center
Mon 12:40:38 PM 39.0300 -87.0447 226° Southwest 410 472 34,000  Level Indianapolis Center
Mon 12:41:39 PM 38.9494 -87.1492 225° Southwest 412 474 34,000  Level Indianapolis Center
Mon 12:42:41 PM 38.8525 -87.2739 225° Southwest 411 473 34,000  Level Indianapolis Center
Mon 12:43:43 PM 38.7708 -87.3764 224° Southwest 412 474 34,000  Level Indianapolis Center
Mon 12:44:45 PM 38.6892 -87.4786 224° Southwest 411 473 34,000  Level Indianapolis Center
Mon 12:45:47 PM 38.6083 -87.5794 224° Southwest 409 471 34,000  Level Indianapolis Center
Mon 12:46:49 PM 38.5289 -87.6800 225° Southwest 406 467 34,000  Level Indianapolis Center
Mon 12:47:51 PM 38.4494 -87.7808 225° Southwest 403 464 34,000  Level Indianapolis Center
Mon 12:48:53 PM 38.3706 -87.8814 225° Southwest 402 463 34,000  Level Indianapolis Center
Mon 12:49:55 PM 38.2742 -87.9997 224° Southwest 401 461 34,000  Level Indianapolis Center
Mon 12:50:57 PM 38.1950 -88.0989 225° Southwest 399 459 34,000  Level Indianapolis Center
Mon 12:51:58 PM 38.1161 -88.1961 224° Southwest 396 456 34,000  Level Indianapolis Center
Mon 12:53:00 PM 38.0367 -88.2950 224° Southwest 397 457 34,000  Level Indianapolis Center
Mon 12:54:02 PM 37.9567 -88.3936 224° Southwest 400 460 34,000  Level Indianapolis Center
Mon 12:55:04 PM 37.8761 -88.4906 224° Southwest 398 458 34,000  Level Indianapolis Center
Mon 12:56:10 PM 37.7781 -88.6203 226° Southwest 420 483 34,000  Level Memphis Center
Mon 12:57:10 PM 37.7019 -88.7033 221° Southwest 415 478 34,000  Level Memphis Center
Mon 12:58:10 PM 37.6178 -88.7939 220° Southwest 410 472 34,000  Level Memphis Center
Mon 12:59:10 PM 37.5378 -88.8897 224° Southwest 410 472 34,000  Level Memphis Center
Mon 01:00:10 PM 37.4597 -88.9906 226° Southwest 410 472 34,000  Level Memphis Center
Mon 01:01:10 PM 37.3817 -89.0911 226° Southwest 410 472 34,000  Level Memphis Center
Mon 01:02:10 PM 37.3014 -89.1861 223° Southwest 405 466 34,000  Level Memphis Center
Mon 01:03:10 PM 37.2211 -89.2836 224° Southwest 405 466 34,000  Level Memphis Center
Mon 01:04:10 PM 37.1406 -89.3811 224° Southwest 400 460 34,000  Level Memphis Center
Mon 01:05:10 PM 37.0622 -89.4783 225° Southwest 400 460 34,000  Level Memphis Center
Mon 01:06:10 PM 36.9794 -89.5725 222° Southwest 400 460 34,000  Level Memphis Center
Mon 01:07:10 PM 36.9008 -89.6694 225° Southwest 400 460 34,000  Level Memphis Center
Mon 01:08:10 PM 36.8097 -89.7764 223° Southwest 405 466 34,000  Level Memphis Center
Mon 01:09:10 PM 36.7267 -89.8703 222° Southwest 405 466 34,000  Level Memphis Center
Mon 01:10:10 PM 36.6458 -89.9639 223° Southwest 405 466 34,000  Level Memphis Center
Mon 01:11:10 PM 36.5647 -90.0597 224° Southwest 400 460 34,000  Level Memphis Center
Mon 01:12:10 PM 36.4817 -90.1531 222° Southwest 400 460 34,000  Level Memphis Center
Mon 01:13:10 PM 36.4003 -90.2486 223° Southwest 400 460 34,000  Level Memphis Center
Mon 01:14:10 PM 36.3192 -90.3389 222° Southwest 400 460 34,000  Level Memphis Center
Mon 01:15:10 PM 36.2378 -90.4317 223° Southwest 395 455 34,000  Level Memphis Center
Mon 01:16:10 PM 36.1586 -90.5242 223° Southwest 395 455 34,000  Level Memphis Center
Mon 01:17:10 PM 36.0769 -90.6139 222° Southwest 395 455 34,000  Level Memphis Center
Mon 01:18:10 PM 35.9956 -90.7058 222° Southwest 395 455 34,000  Level Memphis Center
Mon 01:19:10 PM 35.9181 -90.7953 223° Southwest 395 455 34,000 -250 Level Memphis Center
Mon 01:20:10 PM 35.8364 -90.8869 222° Southwest 395 455 33,500 -650 Descending Memphis Center
Mon 01:21:10 PM 35.7525 -90.9786 222° Southwest 401 461 32,700 -600 Descending Memphis Center
Mon 01:22:10 PM 35.6811 -91.0650 225° Southwest 401 461 32,300 -350 Descending Memphis Center
Mon 01:23:10 PM 35.6014 -91.1614 225° Southwest 401 461 32,000 -150 Descending Memphis Center
Mon 01:24:10 PM 35.5172 -91.2575 223° Southwest 406 467 32,000  Level Memphis Center
Mon 01:25:10 PM 35.4375 -91.3458 222° Southwest 400 460 32,000  Level Memphis Center
Mon 01:26:10 PM 35.3489 -91.4442 222° Southwest 395 455 32,000  Level Memphis Center
Mon 01:27:10 PM 35.2667 -91.5344 222° Southwest 395 455 32,000  Level Memphis Center
Mon 01:28:10 PM 35.1844 -91.6247 222° Southwest 395 455 32,000  Level Memphis Center
Mon 01:29:10 PM 35.1044 -91.7125 222° Southwest 395 455 32,000  Level Memphis Center
Mon 01:30:10 PM 35.0242 -91.8050 223° Southwest 395 455 32,000  Level Memphis Center
Mon 01:31:10 PM 34.9417 -91.8922 221° Southwest 395 455 32,000 -300 Level Memphis Center
Mon 01:32:10 PM 34.8592 -91.9819 222° Southwest 395 455 31,400 -500 Descending Memphis Center
Mon 01:33:10 PM 34.7722 -92.0764 222° Southwest 400 460 31,000 -200 Descending Memphis Center
Mon 01:34:10 PM 34.6875 -92.1706 222° Southwest 406 467 31,000  Level Memphis Center
Mon 01:35:10 PM 34.6114 -92.2472 220° Southwest 406 467 31,000  Level Memphis Center
Mon 01:36:10 PM 34.5100 -92.3156 209° Southwest 411 473 31,000  Level Memphis Center
Mon 01:37:10 PM 34.4008 -92.3683 202° Southwest 416 479 31,000  Level Memphis Center
Mon 01:38:10 PM 34.2994 -92.4389 210° Southwest 422 486 31,000  Level Memphis Center
Mon 01:39:55 PM 34.1369 -92.5858 217° Southwest 391 450 31,000  Level Fort Worth Center
Mon 01:40:55 PM 34.0417 -92.6614 213° Southwest 397 457 31,000 -350 Level Fort Worth Center
Mon 01:41:55 PM 33.9442 -92.7342 212° Southwest 402 463 30,300 -1,000 Descending Fort Worth Center
Mon 01:42:55 PM 33.8425 -92.8072 211° Southwest 414 476 29,000 -1,400 Descending Fort Worth Center
Mon 01:43:55 PM 33.7433 -92.8850 213° Southwest 429 494 27,500 -1,450 Descending Fort Worth Center
Mon 01:44:55 PM 33.6456 -92.9572 212° Southwest 428 493 26,100 -1,500 Descending Fort Worth Center
Mon 01:45:55 PM 33.5500 -93.0294 212° Southwest 420 483 24,500 -1,600 Descending Fort Worth Center
Mon 01:46:55 PM 33.4586 -93.0986 212° Southwest 409 471 22,900 -1,750 Descending Fort Worth Center
Mon 01:47:55 PM 33.3669 -93.1628 210° Southwest 399 459 21,000 -2,150 Descending Fort Worth Center
Mon 01:48:55 PM 33.2789 -93.2192 208° Southwest 383 441 18,600 -2,367 Descending Fort Worth Center
Mon 01:50:00 PM 33.1793 -93.2854 203° Southwest  Level FlightAware Approximate
Mon 01:50:55 PM 33.1161 -93.3461 203° Southwest 360 414 13,900  Level Fort Worth Center
Mon 01:51:55 PM 33.0325 -93.4067 211° Southwest 354 407 13,100 -1,300 Descending Fort Worth Center
Mon 01:52:55 PM 32.9594 -93.4669 215° Southwest 349 402 11,300 -1,744 Descending Fort Worth Center
Mon 01:53:52 PM 32.8967 -93.5317 221° Southwest 294 338 9,700 -1,700 Descending Fort Worth Center
Mon 01:53:55 PM 32.8967 -93.5317 221° Southwest 324 373 9,600 -1,869 Descending Fort Worth Center
Mon 01:54:53 PM 32.8400 -93.5933 222° Southwest 270 311 7,800 -1,916 Descending Fort Worth Center
Mon 01:55:54 PM 32.7836 -93.6550 223° Southwest 262 302 5,800 -1,426 Descending Fort Worth Center
Mon 01:56:55 PM 32.7369 -93.6992 219° Southwest 273 314 4,900 -496 Descending Fort Worth Center
Mon 01:57:55 PM 32.6675 -93.7561 215° Southwest 257 296 4,800 -800 Descending Fort Worth Center
Mon 01:58:55 PM 32.6144 -93.7978 213° Southwest 257 296 3,300 -1,100 Descending Fort Worth Center
Mon 01:59:55 PM 32.5694 -93.8292 210° Southwest 231 266 2,600 -700 Descending Fort Worth Center
Mon 02:00:55 PM 32.5206 -93.8681 214° Southwest 202 232 1,900 -650 Descending Fort Worth Center
Mon 02:01:55 PM 32.4869 -93.8619 171° South 133 153 1,300 -800 Descending Fort Worth Center
Mon 02:02:10 PM 32.4742 -93.8575 164° South 137 158 900 -800 Descending Fort Worth Center
Mon 02:02:55 PM 32.4611 -93.8383 129° Southeast 128 147 500 -533 Descending Fort Worth Center

Login

Don't have an account? Register now (free) for customized features, flight alerts, and more!